createdAt,value
2023-01-31T00:01:54.800Z,97687.41
2023-01-31T00:05:20.279Z,97701.84
2023-01-31T00:08:42.547Z,97680.25
2023-01-31T00:12:04.851Z,97682.81
2023-01-31T00:15:26.910Z,97712.53
2023-01-31T00:18:49.191Z,97716.09
2023-01-31T00:22:12.362Z,97701.75
2023-01-31T00:25:34.834Z,97723.63
2023-01-31T00:28:57.723Z,97723.81
2023-01-31T00:32:19.390Z,97728.88
2023-01-31T00:35:42.068Z,97735.84
2023-01-31T00:39:06.893Z,97735.09
2023-01-31T00:42:28.955Z,97736.00
2023-01-31T00:45:50.532Z,97745.53
2023-01-31T00:49:12.760Z,97753.41
2023-01-31T00:52:35.346Z,97758.41
2023-01-31T00:56:06.403Z,97753.31
2023-01-31T00:59:28.311Z,97752.97
2023-01-31T01:02:50.095Z,97761.28
2023-01-31T01:06:13.419Z,97773.13
2023-01-31T01:09:35.621Z,97772.78
2023-01-31T01:12:59.112Z,97784.56
2023-01-31T01:16:23.324Z,97798.09
2023-01-31T01:19:45.422Z,97811.69
2023-01-31T01:23:07.335Z,97809.97
2023-01-31T01:26:32.094Z,97806.56
2023-01-31T01:29:55.668Z,97816.09
2023-01-31T01:33:17.615Z,97813.06
2023-01-31T01:36:40.025Z,97833.28
2023-01-31T01:40:02.051Z,97845.28
2023-01-31T01:43:40.011Z,97854.13
2023-01-31T01:47:03.721Z,97856.69
2023-01-31T01:50:30.209Z,97846.28
2023-01-31T01:53:56.388Z,97873.03
2023-01-31T01:57:23.737Z,97862.06
2023-01-31T02:00:46.903Z,97878.94
2023-01-31T02:04:15.692Z,97893.53
2023-01-31T02:07:37.940Z,97891.78
2023-01-31T02:11:04.477Z,97896.16
2023-01-31T02:14:27.050Z,97887.84
2023-01-31T02:17:49.017Z,97915.13
2023-01-31T02:21:49.679Z,97924.38
2023-01-31T02:25:33.715Z,97924.38
2023-01-31T02:29:21.696Z,97923.53
2023-01-31T02:33:02.401Z,97903.78
2023-01-31T02:36:35.962Z,97908.16
2023-01-31T02:40:09.403Z,97936.75
2023-01-31T02:44:00.511Z,97937.81
2023-01-31T02:47:31.697Z,97944.63
2023-01-31T02:51:02.032Z,97956.56
2023-01-31T02:54:47.601Z,97961.69
2023-01-31T02:58:13.209Z,97964.22
2023-01-31T03:01:39.451Z,97974.41
2023-01-31T03:05:01.299Z,97971.00
2023-01-31T03:08:24.429Z,97973.81
2023-01-31T03:12:02.696Z,97991.41
2023-01-31T03:16:17.879Z,97993.22
2023-01-31T03:19:48.494Z,97995.78
2023-01-31T03:23:14.371Z,98006.22
2023-01-31T03:26:38.119Z,98002.22
2023-01-31T03:30:07.112Z,98010.69
2023-01-31T03:33:32.670Z,98017.66
2023-01-31T03:36:58.926Z,98012.00
2023-01-31T03:40:23.805Z,98017.06
2023-01-31T03:43:55.663Z,98029.59
2023-01-31T03:47:22.483Z,98026.53
2023-01-31T03:50:47.109Z,98040.91
2023-01-31T03:54:13.711Z,98043.63
2023-01-31T03:57:40.992Z,98056.34
2023-01-31T04:01:09.300Z,98066.63
2023-01-31T04:04:35.718Z,98061.47
2023-01-31T04:07:57.574Z,98068.28
2023-01-31T04:11:22.627Z,98072.50
2023-01-31T04:14:44.493Z,98077.50
2023-01-31T04:18:07.727Z,98083.34
2023-01-31T04:21:29.854Z,98086.75
2023-01-31T04:24:52.004Z,98073.59
2023-01-31T04:28:14.514Z,98099.41
2023-01-31T04:31:36.799Z,98111.34
2023-01-31T04:35:02.078Z,98110.38
2023-01-31T04:38:24.133Z,98117.94
2023-01-31T04:41:46.407Z,98120.47
2023-01-31T04:45:09.399Z,98123.81
2023-01-31T04:48:31.809Z,98123.81
2023-01-31T04:51:57.848Z,98129.00
2023-01-31T04:55:20.132Z,98141.66
2023-01-31T04:58:43.578Z,98148.50
2023-01-31T05:02:05.180Z,98141.91
2023-01-31T05:05:27.114Z,98157.91
2023-01-31T05:08:51.444Z,98157.16
2023-01-31T05:12:13.659Z,98162.28
2023-01-31T05:15:36.215Z,98178.50
2023-01-31T05:18:58.444Z,98181.25
2023-01-31T05:22:22.716Z,98178.69
2023-01-31T05:25:46.923Z,98188.09
2023-01-31T05:29:08.815Z,98190.44
2023-01-31T05:32:31.200Z,98190.28
2023-01-31T05:35:53.066Z,98200.53
2023-01-31T05:39:14.838Z,98200.41
2023-01-31T05:42:38.076Z,98220.09
2023-01-31T05:46:00.143Z,98220.25
2023-01-31T05:49:21.870Z,98225.25
2023-01-31T05:52:43.742Z,98237.53
2023-01-31T05:56:05.730Z,98238.47
2023-01-31T05:59:31.334Z,98248.75
2023-01-31T06:02:53.552Z,98245.34
2023-01-31T06:06:15.689Z,98254.81
2023-01-31T06:09:39.003Z,98253.06
2023-01-31T06:13:01.103Z,98264.09
2023-01-31T06:16:24.466Z,98273.63
2023-01-31T06:19:46.738Z,98277.94
2023-01-31T06:23:08.631Z,98284.94
2023-01-31T06:26:30.827Z,98288.28
2023-01-31T06:29:53.287Z,98287.63
2023-01-31T06:33:17.704Z,98298.69
2023-01-31T06:36:39.585Z,98302.78
2023-01-31T06:40:01.501Z,98308.84
2023-01-31T06:43:23.309Z,98314.06
2023-01-31T06:46:45.325Z,98323.56
2023-01-31T06:50:09.314Z,98327.75
2023-01-31T06:53:31.502Z,98327.75
2023-01-31T06:56:53.850Z,98325.31
2023-01-31T07:00:16.820Z,98327.75
2023-01-31T07:03:41.659Z,98338.91
2023-01-31T07:07:05.191Z,98337.22
2023-01-31T07:10:26.994Z,98345.53
2023-01-31T07:13:50.431Z,98336.97
2023-01-31T07:17:12.584Z,98354.63
2023-01-31T07:20:34.523Z,98366.50
2023-01-31T07:23:57.708Z,98346.97
2023-01-31T07:27:19.743Z,98367.16
2023-01-31T07:30:44.060Z,98375.72
2023-01-31T07:34:06.179Z,98379.81
2023-01-31T07:37:28.182Z,98399.56
2023-01-31T07:40:51.241Z,98399.38
2023-01-31T07:44:13.312Z,98408.66
2023-01-31T07:47:34.990Z,98412.63
2023-01-31T07:51:01.357Z,98419.38
2023-01-31T07:54:23.119Z,98432.91
2023-01-31T07:57:46.136Z,98439.66
2023-01-31T08:01:25.996Z,98434.38
2023-01-31T08:04:48.088Z,98433.50
2023-01-31T08:08:12.512Z,98442.03
2023-01-31T08:11:34.585Z,98449.56
2023-01-31T08:14:57.859Z,98447.00
2023-01-31T08:18:19.587Z,98452.00
2023-01-31T08:21:41.296Z,98453.09
2023-01-31T08:25:03.404Z,98466.72
2023-01-31T08:28:25.162Z,98471.25
2023-01-31T08:31:50.409Z,98487.31
2023-01-31T08:35:13.326Z,98479.78
2023-01-31T08:38:35.717Z,98483.91
2023-01-31T08:41:57.387Z,98501.91
2023-01-31T08:45:22.176Z,98506.06
2023-01-31T08:48:45.674Z,98504.94
2023-01-31T08:52:07.728Z,98510.75
2023-01-31T08:55:30.521Z,98519.03
2023-01-31T08:58:53.378Z,98528.19
2023-01-31T09:02:15.232Z,98535.59
2023-01-31T09:05:38.401Z,98533.97
2023-01-31T09:09:00.476Z,98538.41
2023-01-31T09:12:24.911Z,98542.47
2023-01-31T09:15:46.861Z,98555.34
2023-01-31T09:19:08.570Z,98556.97
2023-01-31T09:22:33.539Z,98549.94
2023-01-31T09:25:56.446Z,98555.88
2023-01-31T09:29:18.699Z,98558.19
2023-01-31T09:32:41.758Z,98564.22
2023-01-31T09:36:05.184Z,98560.69
2023-01-31T09:39:28.510Z,98577.00
2023-01-31T09:42:53.307Z,98570.84
2023-01-31T09:46:20.267Z,98569.28
2023-01-31T09:49:47.411Z,98586.25
2023-01-31T09:53:13.475Z,98575.06
2023-01-31T09:56:42.649Z,98574.22
2023-01-31T10:00:18.109Z,98590.25
2023-01-31T10:03:56.987Z,98563.22
2023-01-31T10:07:26.143Z,98596.06
2023-01-31T10:10:52.705Z,98587.41
2023-01-31T10:14:29.598Z,98588.88
2023-01-31T10:17:56.941Z,98600.72
2023-01-31T10:21:21.450Z,98599.91
2023-01-31T10:24:48.985Z,98593.06
2023-01-31T10:28:15.462Z,98601.63
2023-01-31T10:31:44.831Z,98585.59
2023-01-31T10:35:16.305Z,98597.31
2023-01-31T10:38:43.690Z,98604.91
2023-01-31T10:42:14.248Z,98595.25
2023-01-31T10:45:38.517Z,98609.50
2023-01-31T10:49:01.759Z,98604.19
2023-01-31T10:52:50.775Z,98618.63
2023-01-31T10:56:20.068Z,98616.75
2023-01-31T10:59:45.227Z,98608.94
2023-01-31T11:03:07.115Z,98616.97
2023-01-31T11:06:30.667Z,98623.16
2023-01-31T11:09:54.976Z,98622.16
2023-01-31T11:13:20.548Z,98634.31
2023-01-31T11:16:42.698Z,98627.28
2023-01-31T11:20:06.799Z,98625.66
2023-01-31T11:23:32.969Z,98615.69
2023-01-31T11:26:59.169Z,98643.44
2023-01-31T11:30:24.541Z,98633.06
2023-01-31T11:33:56.502Z,98632.44
2023-01-31T11:37:19.909Z,98645.31
2023-01-31T11:40:43.825Z,98653.84
2023-01-31T11:44:13.155Z,98657.28
2023-01-31T11:47:41.535Z,98655.50
2023-01-31T11:51:05.194Z,98658.91
2023-01-31T11:54:29.412Z,98662.44
2023-01-31T11:57:57.575Z,98658.22
2023-01-31T12:01:22.090Z,98659.03
2023-01-31T12:04:44.380Z,98669.47
2023-01-31T12:08:07.306Z,98663.50
2023-01-31T12:11:32.610Z,98662.72
2023-01-31T12:15:00.605Z,98666.19
2023-01-31T12:18:32.139Z,98664.31
2023-01-31T12:22:04.123Z,98645.00
2023-01-31T12:25:35.581Z,98668.38
2023-01-31T12:29:15.248Z,98659.94
2023-01-31T12:32:51.110Z,98669.34
2023-01-31T12:36:34.830Z,98669.44
2023-01-31T12:40:24.208Z,98673.59
2023-01-31T12:44:01.688Z,98674.72
2023-01-31T12:47:51.694Z,98669.09
2023-01-31T12:51:29.984Z,98685.91
2023-01-31T12:55:04.699Z,98684.44
2023-01-31T12:58:44.427Z,98688.03
2023-01-31T13:02:19.875Z,98664.66
2023-01-31T13:05:48.278Z,98686.38
2023-01-31T13:09:19.597Z,98685.59
2023-01-31T13:12:42.555Z,98684.69
2023-01-31T13:16:13.600Z,98686.44
2023-01-31T13:19:40.904Z,98688.03
2023-01-31T13:23:09.013Z,98687.91
2023-01-31T13:26:35.082Z,98694.03
2023-01-31T13:30:01.592Z,98695.00
2023-01-31T13:33:31.805Z,98701.78
2023-01-31T13:36:58.504Z,98695.06
2023-01-31T13:40:24.709Z,98697.69
2023-01-31T13:43:46.529Z,98702.09
2023-01-31T13:47:18.932Z,98702.94
2023-01-31T13:50:46.316Z,98707.25
2023-01-31T13:54:18.091Z,98703.81
2023-01-31T13:57:47.796Z,98691.91
2023-01-31T14:01:17.825Z,98695.50
2023-01-31T14:04:40.577Z,98692.09
2023-01-31T14:08:40.903Z,98708.34
2023-01-31T14:12:23.981Z,98694.81
2023-01-31T14:15:52.213Z,98696.53
2023-01-31T14:20:03.460Z,98697.59
2023-01-31T14:23:47.124Z,98697.72
2023-01-31T14:27:18.602Z,98693.81
2023-01-31T14:30:47.763Z,98695.00
2023-01-31T14:34:18.908Z,98695.38
2023-01-31T14:37:50.523Z,98699.13
2023-01-31T14:41:21.980Z,98705.44
2023-01-31T14:44:56.329Z,98711.63
2023-01-31T14:48:31.950Z,98709.28
2023-01-31T14:52:19.561Z,98711.25
2023-01-31T14:55:50.721Z,98717.53
2023-01-31T14:59:28.498Z,98710.94
2023-01-31T15:02:55.531Z,98716.44
2023-01-31T15:06:25.756Z,98720.78
2023-01-31T15:09:50.998Z,98725.09
2023-01-31T15:13:38.754Z,98723.59
2023-01-31T15:17:04.019Z,98726.16
2023-01-31T15:20:38.839Z,98727.19
2023-01-31T15:24:02.811Z,98729.22
2023-01-31T15:27:29.899Z,98733.38
2023-01-31T15:30:53.659Z,98731.78
2023-01-31T15:34:20.528Z,98730.31
2023-01-31T15:37:43.390Z,98730.41
2023-01-31T15:41:18.578Z,98729.78
2023-01-31T15:44:42.274Z,98733.38
2023-01-31T15:48:09.356Z,98722.56
2023-01-31T15:51:31.135Z,98728.75
2023-01-31T15:54:58.379Z,98744.09
2023-01-31T15:58:23.281Z,98745.84
2023-01-31T16:01:51.840Z,98737.63
2023-01-31T16:05:20.481Z,98736.78
2023-01-31T16:08:42.595Z,98744.31
2023-01-31T16:12:05.633Z,98745.28
2023-01-31T16:15:29.680Z,98749.63
2023-01-31T16:18:58.285Z,98740.34
2023-01-31T16:22:28.142Z,98740.47
2023-01-31T16:25:54.514Z,98734.56
2023-01-31T16:29:19.174Z,98738.88
2023-01-31T16:32:42.204Z,98739.81
2023-01-31T16:36:14.946Z,98743.31
2023-01-31T16:39:42.287Z,98735.91
2023-01-31T16:43:18.506Z,98747.88
2023-01-31T16:46:42.157Z,98745.44
2023-01-31T16:50:42.231Z,98742.22
2023-01-31T16:54:20.074Z,98732.25
2023-01-31T16:57:42.510Z,98736.47
2023-01-31T17:01:13.291Z,98733.19
2023-01-31T17:04:35.325Z,98732.38
2023-01-31T17:07:58.617Z,98745.22
2023-01-31T17:11:40.908Z,98752.09
2023-01-31T17:15:06.701Z,98751.25
2023-01-31T17:18:28.941Z,98749.72
2023-01-31T17:21:51.026Z,98745.53
2023-01-31T17:25:18.833Z,98742.88
2023-01-31T17:28:46.810Z,98745.50
2023-01-31T17:32:09.984Z,98741.31
2023-01-31T17:35:36.522Z,98740.50
2023-01-31T17:38:58.402Z,98746.50
2023-01-31T17:42:22.423Z,98743.97
2023-01-31T17:45:46.344Z,98735.44
2023-01-31T17:49:08.291Z,98733.75
2023-01-31T17:52:30.366Z,98743.13
2023-01-31T17:55:52.200Z,98739.78
2023-01-31T17:59:25.342Z,98722.06
2023-01-31T18:02:51.883Z,98724.53
2023-01-31T18:06:14.747Z,98718.66
2023-01-31T18:09:36.838Z,98722.81
2023-01-31T18:12:59.335Z,98720.31
2023-01-31T18:16:21.949Z,98725.34
2023-01-31T18:19:44.976Z,98724.47
2023-01-31T18:23:07.841Z,98721.06
2023-01-31T18:26:29.761Z,98721.03
2023-01-31T18:29:51.479Z,98714.25
2023-01-31T18:33:14.440Z,98723.63
2023-01-31T18:36:37.792Z,98716.03
2023-01-31T18:39:59.404Z,98724.56
2023-01-31T18:43:21.841Z,98722.19
2023-01-31T18:46:44.040Z,98718.84
2023-01-31T18:50:06.598Z,98721.44
2023-01-31T18:53:30.340Z,98721.53
2023-01-31T18:56:52.608Z,98720.72
2023-01-31T19:00:15.628Z,98717.25
2023-01-31T19:03:38.333Z,98721.44
2023-01-31T19:07:00.150Z,98719.81
2023-01-31T19:10:23.438Z,98719.88
2023-01-31T19:13:45.801Z,98719.91
2023-01-31T19:17:07.581Z,98719.97
2023-01-31T19:20:29.715Z,98719.97
2023-01-31T19:23:52.922Z,98714.84
2023-01-31T19:27:16.277Z,98713.03
2023-01-31T19:30:39.516Z,98708.81
2023-01-31T19:34:03.062Z,98709.69
2023-01-31T19:37:25.006Z,98714.88
2023-01-31T19:40:48.695Z,98711.50
2023-01-31T19:44:12.135Z,98714.06
2023-01-31T19:47:34.435Z,98723.59
2023-01-31T19:50:56.920Z,98722.84
2023-01-31T19:54:19.391Z,98725.47
2023-01-31T19:57:41.238Z,98729.00
2023-01-31T20:01:07.187Z,98722.28
2023-01-31T20:04:32.498Z,98730.88
2023-01-31T20:07:55.659Z,98729.16
2023-01-31T20:11:18.336Z,98726.63
2023-01-31T20:14:40.199Z,98729.25
2023-01-31T20:18:03.691Z,98730.91
2023-01-31T20:21:28.634Z,98720.72
2023-01-31T20:24:50.598Z,98705.41
2023-01-31T20:28:12.503Z,98717.19
2023-01-31T20:31:34.495Z,98714.63
2023-01-31T20:34:58.264Z,98708.72
2023-01-31T20:38:20.072Z,98704.47
2023-01-31T20:41:42.207Z,98702.84
2023-01-31T20:45:04.403Z,98701.16
2023-01-31T20:48:26.694Z,98708.81
2023-01-31T20:51:49.882Z,98701.16
2023-01-31T20:55:12.151Z,98704.47
2023-01-31T20:58:36.268Z,98704.38
2023-01-31T21:01:58.474Z,98706.84
2023-01-31T21:05:20.680Z,98688.31
2023-01-31T21:08:44.429Z,98715.97
2023-01-31T21:12:06.797Z,98712.41
2023-01-31T21:15:29.069Z,98721.53
2023-01-31T21:18:51.152Z,98718.78
2023-01-31T21:22:13.130Z,98717.75
2023-01-31T21:25:36.508Z,98709.06
2023-01-31T21:29:02.142Z,98712.22
2023-01-31T21:32:24.327Z,98710.41
2023-01-31T21:35:46.477Z,98702.66
2023-01-31T21:39:08.683Z,98709.28
2023-01-31T21:42:32.324Z,98698.06
2023-01-31T21:45:54.445Z,98703.09
2023-01-31T21:49:16.129Z,98705.56
2023-01-31T21:52:37.980Z,98693.53
2023-01-31T21:56:03.444Z,98689.13
2023-01-31T21:59:27.088Z,98690.72
2023-01-31T22:02:53.189Z,98690.66
2023-01-31T22:06:16.423Z,98701.75
2023-01-31T22:09:38.429Z,98699.84
2023-01-31T22:13:00.554Z,98696.41
2023-01-31T22:16:24.050Z,98680.19
2023-01-31T22:19:46.159Z,98681.72
2023-01-31T22:23:08.438Z,98689.25
2023-01-31T22:26:32.596Z,98689.13
2023-01-31T22:30:00.761Z,98686.53
2023-01-31T22:33:27.379Z,98684.75
2023-01-31T22:36:49.445Z,98687.25
2023-01-31T22:40:12.616Z,98688.06
2023-01-31T22:43:37.061Z,98678.69
2023-01-31T22:46:59.006Z,98685.31
2023-01-31T22:50:22.617Z,98671.63
2023-01-31T22:53:44.387Z,98679.31
2023-01-31T22:57:06.454Z,98679.19
2023-01-31T23:00:28.592Z,98670.63
2023-01-31T23:03:50.882Z,98661.34
2023-01-31T23:07:13.965Z,98664.41
2023-01-31T23:10:35.999Z,98650.72
2023-01-31T23:13:58.418Z,98652.44
2023-01-31T23:17:38.608Z,98637.84
2023-01-31T23:21:07.505Z,98638.66
2023-01-31T23:24:30.794Z,98635.25
2023-01-31T23:27:53.275Z,98637.84
2023-01-31T23:31:15.028Z,98631.09
2023-01-31T23:34:36.968Z,98634.47
2023-01-31T23:37:58.693Z,98636.25
2023-01-31T23:41:22.205Z,98647.44
2023-01-31T23:44:44.613Z,98625.25
2023-01-31T23:48:06.749Z,98632.00
2023-01-31T23:51:30.771Z,98627.69
2023-01-31T23:54:52.616Z,98627.78
2023-01-31T23:58:15.761Z,98623.50
